createdAt,value
2022-12-19T00:01:56.361Z,20.63
2022-12-19T00:04:23.409Z,22.88
2022-12-19T00:06:50.296Z,21.48
2022-12-19T00:09:17.037Z,22.55
2022-12-19T00:11:46.124Z,21.80
2022-12-19T00:14:13.005Z,21.60
2022-12-19T00:16:47.239Z,21.42
2022-12-19T00:19:15.966Z,21.15
2022-12-19T00:21:42.744Z,22.80
2022-12-19T00:24:21.384Z,21.75
2022-12-19T00:26:48.857Z,23.15
2022-12-19T00:29:17.203Z,21.77
2022-12-19T00:31:44.142Z,23.15
2022-12-19T00:34:10.894Z,22.92
2022-12-19T00:36:37.778Z,21.60
2022-12-19T00:39:08.517Z,23.23
2022-12-19T00:41:41.320Z,22.05
2022-12-19T00:44:14.464Z,22.58
2022-12-19T00:46:41.616Z,22.13
2022-12-19T00:49:09.333Z,22.10
2022-12-19T00:51:37.742Z,22.52
2022-12-19T00:54:06.774Z,22.83
2022-12-19T00:56:37.479Z,24.05
2022-12-19T00:59:06.138Z,22.92
2022-12-19T01:01:39.495Z,23.05
2022-12-19T01:06:57.900Z,22.30
2022-12-19T01:09:28.966Z,21.60
2022-12-19T01:12:14.534Z,22.60
2022-12-19T01:14:41.331Z,21.65
2022-12-19T01:17:08.067Z,23.13
2022-12-19T01:19:41.911Z,23.27
2022-12-19T01:22:11.134Z,22.20
2022-12-19T01:24:39.600Z,22.70
2022-12-19T01:27:06.374Z,23.60
2022-12-19T01:29:36.672Z,21.75
2022-12-19T01:32:18.410Z,20.52
2022-12-19T01:34:45.208Z,21.53
2022-12-19T01:37:12.025Z,21.33
2022-12-19T01:39:38.977Z,21.50
2022-12-19T01:42:23.075Z,22.23
2022-12-19T01:45:12.119Z,20.70
2022-12-19T01:47:45.770Z,22.25
2022-12-19T01:50:38.048Z,21.40
2022-12-19T01:53:11.059Z,21.38
2022-12-19T01:55:41.035Z,19.90
2022-12-19T01:58:09.127Z,22.17
2022-12-19T02:00:36.146Z,22.83
2022-12-19T04:49:33.520Z,20.95
2022-12-19T04:54:42.569Z,21.38
2022-12-19T04:57:09.556Z,22.60
2022-12-19T05:07:34.873Z,22.27
2022-12-19T05:10:01.690Z,21.80
2022-12-19T05:12:37.499Z,22.77
2022-12-19T05:15:06.161Z,21.88
2022-12-19T05:17:32.912Z,20.90
2022-12-19T05:19:59.755Z,23.50
2022-12-19T05:22:26.499Z,21.63
2022-12-19T05:24:54.432Z,22.47
2022-12-19T05:27:21.303Z,22.63
2022-12-19T05:29:48.172Z,22.27
2022-12-19T05:32:15.350Z,21.20
2022-12-19T05:34:42.153Z,22.63
2022-12-19T05:37:09.080Z,22.08
2022-12-19T05:39:36.142Z,22.08
2022-12-19T05:42:07.364Z,22.83
2022-12-19T05:44:37.659Z,22.08
2022-12-19T05:47:04.543Z,23.03
2022-12-19T05:49:31.287Z,22.27
2022-12-19T05:51:58.437Z,23.00
2022-12-19T05:54:26.498Z,20.75
2022-12-19T05:56:53.231Z,21.33
2022-12-19T05:59:20.083Z,21.00
2022-12-19T06:01:46.930Z,20.52
2022-12-19T06:04:14.959Z,21.63
2022-12-19T06:06:41.749Z,22.10
2022-12-19T06:09:08.563Z,22.90
2022-12-19T06:11:35.469Z,20.65
2022-12-19T06:14:02.467Z,25.10
2022-12-19T06:16:29.603Z,22.40
2022-12-19T06:18:58.039Z,22.85
2022-12-19T06:21:26.244Z,23.67
2022-12-19T06:23:54.749Z,22.83
2022-12-19T06:26:22.680Z,21.58
2022-12-19T06:28:53.360Z,22.05
2022-12-19T06:31:22.127Z,22.38
2022-12-19T06:33:49.299Z,20.23
2022-12-19T06:36:22.169Z,25.48
2022-12-19T06:38:50.621Z,22.77
2022-12-19T06:41:37.252Z,23.90
2022-12-19T06:44:06.448Z,22.13
2022-12-19T06:46:33.629Z,22.98
2022-12-19T06:49:00.982Z,24.35
2022-12-19T06:51:28.121Z,24.05
2022-12-19T06:53:55.549Z,20.40
2022-12-19T06:56:22.879Z,24.33
2022-12-19T07:01:38.793Z,21.52
2022-12-19T07:04:07.597Z,21.83
2022-12-19T07:06:35.774Z,22.98
2022-12-19T07:09:02.643Z,23.58
2022-12-19T07:11:29.550Z,23.17
2022-12-19T07:13:58.448Z,22.85
2022-12-19T07:16:26.695Z,22.33
2022-12-19T07:18:54.058Z,23.75
2022-12-19T07:21:22.221Z,23.00
2022-12-19T07:23:49.368Z,23.48
2022-12-19T07:26:16.232Z,25.42
2022-12-19T07:28:44.707Z,23.45
2022-12-19T07:31:11.542Z,24.25
2022-12-19T07:33:38.409Z,22.25
2022-12-19T07:36:07.544Z,23.88
2022-12-19T07:38:34.376Z,24.20
2022-12-19T07:41:02.261Z,22.33
2022-12-19T07:43:29.454Z,22.77
2022-12-19T07:45:57.011Z,23.02
2022-12-19T07:48:24.481Z,21.92
2022-12-19T07:50:51.551Z,21.55
2022-12-19T07:53:18.406Z,22.35
2022-12-19T07:55:45.220Z,20.95
2022-12-19T07:58:12.158Z,22.05
2022-12-19T08:00:39.021Z,22.40
2022-12-19T08:03:05.843Z,22.48
2022-12-19T08:05:34.981Z,21.85
2022-12-19T08:08:01.892Z,21.00
2022-12-19T08:10:28.670Z,20.98
2022-12-19T08:12:55.546Z,22.02
2022-12-19T08:15:22.307Z,22.17
2022-12-19T08:17:49.398Z,21.03
2022-12-19T08:20:16.287Z,20.08
2022-12-19T08:22:43.142Z,19.70
2022-12-19T08:25:11.894Z,19.98
2022-12-19T08:27:38.708Z,20.42
2022-12-19T08:30:06.913Z,21.52
2022-12-19T08:32:35.892Z,20.05
2022-12-19T08:35:02.772Z,19.48
2022-12-19T08:37:29.568Z,20.08
2022-12-19T08:39:56.335Z,21.10
2022-12-19T08:42:25.319Z,19.93
2022-12-19T08:44:52.040Z,17.25
2022-12-19T08:47:18.814Z,18.37
2022-12-19T08:49:45.704Z,19.43
2022-12-19T08:52:12.697Z,19.15
2022-12-19T08:54:39.537Z,17.50
2022-12-19T08:57:06.320Z,19.23
2022-12-19T08:59:33.190Z,17.83
2022-12-19T09:02:01.402Z,16.98
2022-12-19T09:06:02.643Z,19.38
2022-12-19T09:07:16.668Z,19.08
2022-12-19T09:09:44.521Z,17.63
2022-12-19T09:12:13.813Z,17.70
2022-12-19T09:14:41.659Z,17.00
2022-12-19T09:17:09.039Z,17.55
2022-12-19T09:19:35.957Z,18.30
2022-12-19T09:22:02.737Z,18.65
2022-12-19T09:24:30.723Z,17.13
2022-12-19T09:26:57.774Z,18.10
2022-12-19T09:29:25.144Z,18.58
2022-12-19T09:31:56.519Z,18.17
2022-12-19T09:34:37.198Z,18.13
2022-12-19T09:37:15.957Z,17.88
2022-12-19T09:39:48.674Z,19.13
2022-12-19T09:42:34.199Z,19.08
2022-12-19T09:45:33.174Z,19.73
2022-12-19T09:48:01.435Z,17.38
2022-12-19T09:50:52.160Z,18.15
2022-12-19T09:53:31.536Z,16.67
2022-12-19T09:56:00.772Z,17.60
2022-12-19T09:58:42.580Z,17.48
2022-12-19T10:01:24.477Z,17.80
2022-12-19T10:04:13.631Z,17.38
2022-12-19T10:07:13.982Z,16.48
2022-12-19T10:12:32.992Z,18.38
2022-12-19T10:12:52.827Z,18.05
2022-12-19T10:16:00.374Z,17.33
2022-12-19T10:18:33.252Z,17.67
2022-12-19T10:21:09.012Z,17.92
2022-12-19T10:23:55.742Z,17.00
2022-12-19T10:26:36.407Z,17.10
2022-12-19T10:29:07.409Z,16.33
2022-12-19T10:31:53.694Z,17.73
2022-12-19T10:34:32.766Z,17.52
2022-12-19T10:37:34.326Z,17.50
2022-12-19T10:40:29.028Z,17.40
2022-12-19T10:43:25.897Z,17.77
2022-12-19T10:46:02.649Z,18.35
2022-12-19T10:48:31.431Z,18.08
2022-12-19T10:51:00.650Z,17.83
2022-12-19T10:53:33.912Z,16.92
2022-12-19T10:56:11.434Z,18.10
2022-12-19T10:58:43.116Z,18.08
2022-12-19T11:01:16.011Z,16.83
2022-12-19T11:03:46.799Z,16.67
2022-12-19T11:06:41.720Z,17.90
2022-12-19T11:09:27.934Z,17.25
2022-12-19T11:15:19.984Z,16.67
2022-12-19T11:19:38.201Z,16.52
2022-12-19T11:24:19.075Z,18.15
2022-12-19T11:29:31.406Z,15.45
2022-12-19T11:29:37.049Z,17.38
2022-12-19T11:30:25.738Z,15.45
2022-12-19T11:32:45.109Z,15.68
2022-12-19T11:35:17.893Z,16.92
2022-12-19T11:37:58.509Z,16.05
2022-12-19T11:40:33.932Z,16.17
2022-12-19T11:43:43.280Z,16.42
2022-12-19T11:46:13.887Z,16.58
2022-12-19T11:48:52.406Z,16.63
2022-12-19T11:51:19.372Z,15.63
2022-12-19T11:54:00.837Z,17.88
2022-12-19T11:56:29.471Z,15.38
2022-12-19T11:59:00.645Z,15.48
2022-12-19T12:01:39.990Z,15.93
2022-12-19T12:04:15.751Z,16.50
2022-12-19T12:06:53.622Z,15.82
2022-12-19T12:16:14.742Z,15.35
2022-12-19T12:20:12.777Z,16.17
2022-12-19T12:31:00.950Z,16.02
2022-12-19T12:31:10.900Z,15.43
2022-12-19T12:31:43.268Z,13.75
2022-12-19T12:31:43.658Z,14.93
2022-12-19T12:32:04.346Z,14.85
2022-12-19T12:35:50.036Z,15.38
2022-12-19T12:41:04.900Z,15.13
2022-12-19T12:43:38.202Z,16.63
2022-12-19T12:46:17.617Z,14.82
2022-12-19T12:48:50.292Z,15.93
2022-12-19T12:51:18.581Z,15.35
2022-12-19T12:53:48.124Z,15.63
2022-12-19T12:56:17.710Z,14.30
2022-12-19T12:58:54.258Z,16.23
2022-12-19T13:01:35.422Z,14.63
2022-12-19T13:04:04.877Z,15.27
2022-12-19T13:06:38.158Z,14.63
2022-12-19T13:09:26.058Z,16.10
2022-12-19T13:12:50.837Z,15.65
2022-12-19T13:15:31.819Z,14.75
2022-12-19T13:18:27.759Z,15.95
2022-12-19T13:20:54.764Z,15.25
2022-12-19T13:23:29.745Z,17.30
2022-12-19T13:25:56.880Z,17.38
2022-12-19T13:28:23.768Z,15.95
2022-12-19T13:31:20.586Z,16.30
2022-12-19T13:33:52.001Z,17.63
2022-12-19T13:39:50.173Z,15.95
2022-12-19T13:40:11.398Z,16.45
2022-12-19T13:43:09.913Z,16.10
2022-12-19T13:45:41.603Z,16.13
2022-12-19T13:48:16.663Z,16.98
2022-12-19T13:50:48.055Z,17.10
2022-12-19T13:53:18.593Z,18.02
2022-12-19T13:55:46.165Z,17.50
2022-12-19T13:58:28.909Z,18.35
2022-12-19T14:01:02.511Z,17.52
2022-12-19T14:03:38.189Z,17.55
2022-12-19T14:06:19.658Z,17.98
2022-12-19T14:08:59.239Z,17.25
2022-12-19T14:13:45.960Z,17.33
2022-12-19T14:15:12.270Z,18.48
2022-12-19T14:17:37.241Z,21.67
2022-12-19T14:22:02.299Z,24.00
2022-12-19T14:23:36.861Z,19.00
2022-12-19T14:28:20.605Z,18.77
2022-12-19T14:29:45.390Z,18.42
2022-12-19T14:33:39.227Z,23.98
2022-12-19T14:39:18.157Z,22.58
2022-12-19T14:41:09.174Z,22.23
2022-12-19T14:43:59.709Z,20.60
2022-12-19T14:54:11.641Z,19.17
2022-12-19T14:54:16.487Z,24.63
2022-12-19T14:54:26.484Z,20.95
2022-12-19T14:56:04.703Z,19.85
2022-12-19T14:58:54.750Z,19.42
2022-12-19T15:01:28.655Z,24.92
2022-12-19T15:04:51.397Z,23.65
2022-12-19T15:07:07.028Z,19.08
2022-12-19T15:10:59.070Z,23.25
2022-12-19T15:14:47.323Z,21.17
2022-12-19T15:16:05.266Z,21.13
2022-12-19T15:18:42.686Z,20.58
2022-12-19T15:21:14.580Z,20.73
2022-12-19T15:23:44.383Z,21.50
2022-12-19T15:26:17.391Z,21.20
2022-12-19T15:28:50.216Z,20.58
2022-12-19T15:31:39.103Z,20.50
2022-12-19T15:34:40.470Z,22.50
2022-12-19T15:37:12.933Z,22.13
2022-12-19T15:39:42.115Z,21.90
2022-12-19T15:42:29.081Z,22.50
2022-12-19T15:44:58.823Z,23.02
2022-12-19T15:47:29.792Z,23.73
2022-12-19T15:49:58.242Z,21.38
2022-12-19T15:52:26.154Z,23.08
2022-12-19T15:54:53.005Z,31.60
2022-12-19T15:57:36.379Z,26.25
2022-12-19T16:00:07.889Z,23.63
2022-12-19T16:03:13.246Z,22.67
2022-12-19T16:05:24.057Z,22.20
2022-12-19T16:07:52.655Z,22.58
2022-12-19T16:10:19.548Z,21.88
2022-12-19T16:12:51.125Z,23.30
2022-12-19T16:15:29.831Z,23.33
2022-12-19T16:17:58.132Z,23.30
2022-12-19T16:20:27.873Z,25.15
2022-12-19T16:22:55.827Z,24.73
2022-12-19T16:25:48.256Z,43.20
2022-12-19T16:28:19.569Z,27.13
2022-12-19T16:30:50.365Z,25.40
2022-12-19T16:33:29.816Z,24.15
2022-12-19T16:36:06.258Z,25.63
2022-12-19T16:38:33.982Z,22.48
2022-12-19T16:41:01.770Z,25.00
2022-12-19T16:43:32.256Z,23.10
2022-12-19T16:46:01.603Z,43.78
2022-12-19T16:48:29.880Z,27.45
2022-12-19T16:50:58.617Z,25.33
2022-12-19T16:53:25.886Z,22.95
2022-12-19T16:55:54.082Z,26.52
2022-12-19T16:58:24.608Z,26.38
2022-12-19T17:00:54.778Z,23.75
2022-12-19T17:03:31.432Z,25.95
2022-12-19T17:06:01.199Z,22.65
2022-12-19T17:08:28.170Z,20.75
2022-12-19T17:10:55.436Z,21.63
2022-12-19T17:13:25.005Z,22.60
2022-12-19T17:15:57.156Z,35.38
2022-12-19T17:18:35.700Z,26.20
2022-12-19T17:21:02.639Z,28.40
2022-12-19T17:23:32.331Z,26.30
2022-12-19T17:26:00.715Z,24.02
2022-12-19T17:28:28.247Z,22.23
2022-12-19T17:30:57.653Z,22.25
2022-12-19T17:33:31.943Z,23.27
2022-12-19T17:36:00.854Z,22.35
2022-12-19T17:38:27.776Z,22.25
2022-12-19T17:40:54.701Z,21.73
2022-12-19T17:43:21.715Z,23.77
2022-12-19T17:45:50.726Z,21.70
2022-12-19T17:48:27.871Z,21.38
2022-12-19T17:50:55.568Z,22.95
2022-12-19T17:55:49.461Z,21.15
2022-12-19T17:58:17.314Z,22.65
2022-12-19T18:00:47.197Z,21.75
2022-12-19T18:03:21.773Z,22.50
2022-12-19T18:05:51.873Z,22.77
2022-12-19T18:08:29.007Z,25.83
2022-12-19T18:10:58.448Z,28.88
2022-12-19T18:13:28.267Z,29.00
2022-12-19T18:16:00.824Z,30.83
2022-12-19T18:18:33.439Z,33.47
2022-12-19T18:21:02.873Z,34.35
2022-12-19T18:23:30.835Z,40.58
2022-12-19T18:26:01.767Z,38.45
2022-12-19T18:28:31.168Z,39.05
2022-12-19T18:31:06.542Z,39.25
2022-12-19T18:33:38.999Z,41.35
2022-12-19T18:36:07.440Z,39.78
2022-12-19T18:38:40.249Z,39.83
2022-12-19T18:41:10.892Z,37.47
2022-12-19T18:43:37.853Z,39.38
2022-12-19T18:46:07.436Z,40.63
2022-12-19T18:48:37.509Z,41.88
2022-12-19T18:51:05.580Z,46.83
2022-12-19T18:53:35.825Z,48.35
2022-12-19T18:56:05.635Z,45.22
2022-12-19T18:58:35.871Z,41.72
2022-12-19T19:01:04.752Z,43.58
2022-12-19T19:03:40.283Z,39.38
2022-12-19T19:06:19.409Z,39.22
2022-12-19T19:08:46.424Z,40.70
2022-12-19T19:11:13.276Z,35.03
2022-12-19T19:13:42.170Z,35.47
2022-12-19T19:16:27.136Z,33.83
2022-12-19T19:18:55.997Z,30.42
2022-12-19T19:21:32.341Z,31.42
2022-12-19T19:24:05.980Z,29.45
2022-12-19T19:26:32.866Z,31.08
2022-12-19T19:28:59.643Z,33.97
2022-12-19T19:31:29.887Z,39.33
2022-12-19T19:34:03.466Z,35.60
2022-12-19T19:36:36.622Z,33.22
2022-12-19T19:39:05.328Z,38.55
2022-12-19T19:41:34.257Z,37.03
2022-12-19T19:44:01.348Z,30.00
2022-12-19T19:46:28.774Z,30.95
2022-12-19T19:48:56.007Z,30.77
2022-12-19T19:51:23.042Z,30.10
2022-12-19T19:53:51.008Z,29.67
2022-12-19T19:56:17.824Z,32.65
2022-12-19T19:58:44.770Z,30.70
2022-12-19T20:01:13.518Z,29.65
2022-12-19T20:03:42.007Z,30.35
2022-12-19T20:06:10.383Z,29.50
2022-12-19T20:08:39.977Z,31.13
2022-12-19T20:11:09.584Z,31.23
2022-12-19T20:13:37.702Z,28.30
2022-12-19T20:16:11.955Z,29.83
2022-12-19T20:18:40.147Z,29.85
2022-12-19T20:21:13.575Z,30.08
2022-12-19T20:23:42.812Z,32.88
2022-12-19T20:26:11.482Z,32.70
2022-12-19T20:28:45.618Z,32.30
2022-12-19T20:31:16.256Z,31.02
2022-12-19T20:33:43.139Z,30.70
2022-12-19T20:36:14.210Z,32.75
2022-12-19T20:38:41.459Z,31.60
2022-12-19T20:41:08.903Z,30.80
2022-12-19T20:43:37.671Z,29.52
2022-12-19T20:46:16.435Z,30.15
2022-12-19T20:48:44.982Z,28.92
2022-12-19T20:51:12.756Z,28.80
2022-12-19T20:53:41.775Z,29.00
2022-12-19T20:56:13.853Z,27.50
2022-12-19T20:58:40.777Z,40.72
2022-12-19T21:01:18.339Z,30.13
2022-12-19T21:03:45.821Z,28.73
2022-12-19T21:06:17.555Z,28.30
2022-12-19T21:08:44.928Z,29.83
2022-12-19T21:11:12.418Z,29.10
2022-12-19T21:13:39.763Z,27.92
2022-12-19T21:16:09.092Z,28.90
2022-12-19T21:18:39.519Z,28.02
2022-12-19T21:21:09.451Z,26.98
2022-12-19T21:23:37.310Z,28.10
2022-12-19T21:26:05.783Z,28.35
2022-12-19T21:28:33.176Z,26.92
2022-12-19T21:31:12.129Z,28.05
2022-12-19T21:33:40.394Z,25.92
2022-12-19T21:36:08.969Z,27.38
2022-12-19T21:41:18.784Z,29.98
2022-12-19T21:43:49.031Z,28.20
2022-12-19T21:46:17.808Z,30.42
2022-12-19T21:48:47.452Z,30.67
2022-12-19T21:51:15.855Z,30.02
2022-12-19T21:53:55.493Z,28.05
2022-12-19T21:56:30.414Z,26.23
2022-12-19T21:59:12.898Z,26.08
2022-12-19T22:01:41.928Z,27.05
2022-12-19T22:04:22.501Z,25.42
2022-12-19T22:06:50.566Z,26.63
2022-12-19T22:09:22.916Z,26.30
2022-12-19T22:11:50.582Z,27.10
2022-12-19T22:16:44.917Z,25.42
2022-12-19T22:19:19.941Z,26.92
2022-12-19T22:21:48.101Z,26.20
2022-12-19T22:24:16.559Z,26.10
2022-12-19T22:26:45.075Z,26.58
2022-12-19T22:29:15.178Z,27.90
2022-12-19T22:31:45.817Z,27.65
2022-12-19T22:34:15.382Z,25.60
2022-12-19T22:36:43.508Z,27.13
2022-12-19T22:39:14.097Z,27.20
2022-12-19T22:41:41.806Z,27.50
2022-12-19T22:44:17.287Z,29.35
2022-12-19T22:46:47.917Z,28.45
2022-12-19T22:49:15.076Z,26.95
2022-12-19T22:51:45.451Z,27.77
2022-12-19T22:54:14.971Z,27.20
2022-12-19T22:56:42.267Z,26.45
2022-12-19T22:59:12.011Z,26.55
2022-12-19T23:01:41.858Z,25.83
2022-12-19T23:04:12.565Z,26.98
2022-12-19T23:06:39.791Z,28.05
2022-12-19T23:09:10.066Z,25.40
2022-12-19T23:11:40.096Z,25.90
2022-12-19T23:14:11.228Z,26.15
2022-12-19T23:16:38.289Z,27.60
2022-12-19T23:19:09.033Z,30.50
2022-12-19T23:21:36.976Z,29.85
2022-12-19T23:24:05.700Z,30.80
2022-12-19T23:26:37.836Z,32.63
2022-12-19T23:29:13.622Z,32.65
2022-12-19T23:31:43.859Z,31.42
2022-12-19T23:34:11.032Z,30.05
2022-12-19T23:39:27.415Z,25.65
2022-12-19T23:41:54.209Z,25.25
2022-12-19T23:44:21.120Z,26.80
2022-12-19T23:46:48.068Z,26.43
2022-12-19T23:49:15.676Z,27.13
2022-12-19T23:54:09.790Z,28.45
2022-12-19T23:56:41.197Z,26.45
2022-12-19T23:59:08.041Z,28.15
